Time;durP1;ratioP1;P1;durP2;ratioP2;P2;SDS_P1;SDS_P2;PMS_P1;PMS_P2;Temp;Humidity;BMP_temperature;BMP_pressure;BME280_temperature;BME280_humidity;BME280_pressure;Samples;Min_cycle;Max_cycle;Signal;HPM_P1;HPM_P2
2023/02/20 00:00:06;;;;;;;9.73;6.40;;;;;;;12.74;53.48;100160.47;5045809;28;20037;-35
2023/02/20 00:02:34;;;;;;;10.20;6.38;;;;;;;12.97;53.09;100174.94;5047560;28;20028;-34
2023/02/20 00:05:00;;;;;;;11.88;6.53;;;;;;;13.02;52.67;100185.78;5047478;28;20112;-34
2023/02/20 00:07:25;;;;;;;11.18;6.47;;;;;;;12.98;52.93;100195.31;5047612;28;20133;-34
2023/02/20 00:09:51;;;;;;;11.82;7.38;;;;;;;13.14;52.38;100197.31;5047940;28;20836;-34
2023/02/20 00:12:16;;;;;;;10.90;6.75;;;;;;;12.87;52.96;100180.84;5047947;28;20112;-34
2023/02/20 00:14:41;;;;;;;10.23;5.68;;;;;;;12.98;52.62;100182.75;5047571;28;20386;-34
2023/02/20 00:17:07;;;;;;;10.02;6.40;;;;;;;13.07;52.38;100196.59;5047355;28;20486;-34
2023/02/20 00:19:32;;;;;;;12.13;5.95;;;;;;;12.98;51.97;100177.38;5047070;28;20059;-34
2023/02/20 00:21:58;;;;;;;10.07;5.68;;;;;;;12.91;52.23;100176.66;5047513;28;20400;-34
2023/02/20 00:24:23;;;;;;;11.65;6.45;;;;;;;13.05;52.18;100204.03;5047536;28;20029;-34
2023/02/20 00:26:51;;;;;;;11.95;6.85;;;;;;;13.12;51.75;100196.72;5047348;28;20017;-34
2023/02/20 00:29:19;;;;;;;11.63;6.68;;;;;;;13.08;52.01;100198.22;5047185;28;20091;-34
2023/02/20 00:31:53;;;;;;;11.63;6.77;;;;;;;12.93;52.25;100181.78;5047275;28;20028;-33
2023/02/20 00:34:19;;;;;;;11.05;6.70;;;;;;;12.84;52.43;100192.84;5047305;28;20309;-34
2023/02/20 00:36:44;;;;;;;11.38;6.25;;;;;;;12.85;53.03;100209.69;5047363;28;20064;-34
2023/02/20 00:39:10;;;;;;;11.40;7.20;;;;;;;12.81;52.75;100206.69;5047102;28;20112;-34
2023/02/20 00:41:35;;;;;;;10.75;6.88;;;;;;;12.79;52.68;100184.69;5047051;28;20056;-35
2023/02/20 00:44:01;;;;;;;11.38;6.75;;;;;;;12.66;53.51;100185.69;5047570;28;20063;-34
2023/02/20 00:46:26;;;;;;;11.98;6.90;;;;;;;12.55;53.51;100194.53;5047549;28;20572;-34
2023/02/20 00:48:52;;;;;;;11.10;6.07;;;;;;;12.62;53.39;100207.81;5046685;28;20136;-34
2023/02/20 00:51:17;;;;;;;12.00;6.90;;;;;;;12.59;53.48;100202.94;5047356;28;20044;-34
2023/02/20 00:53:42;;;;;;;11.10;6.55;;;;;;;12.65;53.04;100178.75;5047076;28;20029;-33
2023/02/20 00:56:10;;;;;;;10.82;5.97;;;;;;;12.67;53.26;100181.19;5029356;28;20059;-34
2023/02/20 00:58:38;;;;;;;11.25;6.57;;;;;;;12.72;53.08;100201.91;5045715;28;20063;-33
2023/02/20 01:01:03;;;;;;;10.10;6.97;;;;;;;12.60;53.57;100201.88;5046783;28;20606;-33
2023/02/20 01:03:29;;;;;;;12.77;6.75;;;;;;;12.53;53.24;100201.16;5046613;28;20037;-33
2023/02/20 01:05:54;;;;;;;12.77;6.93;;;;;;;12.59;53.57;100205.59;5047142;28;20033;-34
2023/02/20 01:08:20;;;;;;;11.20;6.53;;;;;;;12.50;53.56;100197.06;5045774;28;20025;-34
2023/02/20 01:10:45;;;;;;;12.77;6.60;;;;;;;12.54;53.62;100208.13;5045511;28;20033;-34
2023/02/20 01:13:11;;;;;;;11.43;7.05;;;;;;;12.34;54.51;100206.56;5048819;28;20025;-34
2023/02/20 01:15:36;;;;;;;10.85;6.97;;;;;;;12.16;54.21;100207.41;5050146;28;20040;-33
2023/02/20 01:18:02;;;;;;;12.52;7.18;;;;;;;12.24;54.14;100203.63;5050538;28;20073;-34
2023/02/20 01:20:27;;;;;;;13.10;7.28;;;;;;;12.10;54.31;100197.63;5049224;28;20040;-33
2023/02/20 01:22:53;;;;;;;12.90;6.70;;;;;;;12.09;53.95;100179.94;5050302;28;20107;-33
2023/02/20 01:25:18;;;;;;;14.13;7.18;;;;;;;12.16;54.35;100203.94;5050213;28;20135;-34
2023/02/20 01:27:43;;;;;;;13.88;7.30;;;;;;;12.12;54.31;100194.72;5050075;28;20412;-33
2023/02/20 01:30:09;;;;;;;14.00;7.07;;;;;;;12.11;54.55;100207.25;5050156;28;20029;-33
2023/02/20 01:32:35;;;;;;;14.25;7.10;;;;;;;12.07;54.20;100198.06;5049972;28;20029;-33
2023/02/20 01:35:01;;;;;;;15.98;7.70;;;;;;;12.01;54.67;100197.13;5050461;28;20559;-33
2023/02/20 01:37:26;;;;;;;12.82;7.55;;;;;;;11.99;54.21;100180.50;5049868;28;20029;-33
2023/02/20 01:39:52;;;;;;;11.00;6.10;;;;;;;12.07;53.97;100198.06;5048617;28;20134;-33
2023/02/20 01:42:21;;;;;;;15.40;7.53;;;;;;;12.20;53.51;100218.47;5050068;28;20112;-33
2023/02/20 01:44:47;;;;;;;13.07;7.57;;;;;;;12.18;53.78;100213.34;5048501;28;20067;-33
2023/02/20 01:47:21;;;;;;;14.95;7.93;;;;;;;12.10;53.98;100208.31;5049732;28;20405;-33
2023/02/20 01:50:02;;;;;;;12.68;7.57;;;;;;;11.98;53.94;100205.59;5049861;28;20033;-34
2023/02/20 01:52:32;;;;;;;16.83;8.38;;;;;;;12.13;53.90;100223.91;5050130;28;20028;-34
2023/02/20 01:55:15;;;;;;;13.13;8.02;;;;;;;12.10;53.60;100218.22;5049724;28;20032;-34
2023/02/20 01:57:47;;;;;;;12.95;7.63;;;;;;;12.13;53.80;100212.41;5049407;28;20060;-33
2023/02/20 02:00:17;;;;;;;11.95;7.85;;;;;;;12.31;53.11;100232.94;5049942;28;20036;-33
2023/02/20 02:02:59;;;;;;;13.40;8.15;;;;;;;12.10;53.68;100232.38;5049802;28;20182;-34
2023/02/20 02:05:28;;;;;;;15.15;8.70;;;;;;;12.11;53.72;100234.00;5049383;28;20021;-34
2023/02/20 02:07:55;;;;;;;12.73;8.05;;;;;;;12.09;53.38;100221.91;5049163;28;20025;-33
2023/02/20 02:10:28;;;;;;;16.20;8.95;;;;;;;12.15;53.69;100237.03;5049341;28;20028;-33
2023/02/20 02:12:54;;;;;;;15.23;7.90;;;;;;;12.11;53.34;100249.22;5049438;28;20550;-34
2023/02/20 02:15:22;;;;;;;13.75;9.07;;;;;;;11.97;53.49;100244.06;5049271;28;20028;-34
2023/02/20 02:17:50;;;;;;;14.48;8.63;;;;;;;12.05;53.99;100250.94;5049404;28;20033;-33
2023/02/20 02:20:34;;;;;;;14.82;8.40;;;;;;;12.09;53.41;100253.97;5049195;28;20029;-34
2023/02/20 02:23:37;;;;;;;15.30;7.75;;;;;;;12.00;54.05;100261.50;5048858;28;20531;-34
2023/02/20 02:26:28;;;;;;;14.68;9.98;;;;;;;12.02;54.06;100265.56;5048154;28;20136;-33
2023/02/20 02:29:18;;;;;;;15.35;8.18;;;;;;;12.02;54.14;100272.78;5048834;28;20033;-34
2023/02/20 02:32:21;;;;;;;14.52;8.25;;;;;;;11.81;54.82;100268.63;5049341;28;20154;-33
2023/02/20 02:35:11;;;;;;;13.38;7.38;;;;;;;11.74;54.60;100262.56;5048778;28;20040;-34
2023/02/20 02:37:46;;;;;;;15.73;8.05;;;;;;;11.59;54.79;100247.72;5048746;28;20083;-34
2023/02/20 02:40:36;;;;;;;16.05;8.00;;;;;;;11.48;55.74;100264.44;5048976;28;20052;-34
2023/02/20 02:43:27;;;;;;;14.48;8.38;;;;;;;11.43;55.65;100258.97;5048932;28;20033;-33
2023/02/20 02:45:59;;;;;;;14.90;8.20;;;;;;;11.48;55.58;100264.44;5048071;28;20037;-33
2023/02/20 02:48:27;;;;;;;14.48;8.75;;;;;;;11.50;55.31;100262.38;5048608;28;20044;-34
2023/02/20 02:50:59;;;;;;;14.13;8.57;;;;;;;11.48;55.52;100268.97;5048829;28;20037;-33
2023/02/20 02:53:25;;;;;;;14.57;8.45;;;;;;;11.41;55.39;100261.84;5048537;28;20025;-34
2023/02/20 02:55:50;;;;;;;16.08;9.13;;;;;;;11.36;55.59;100266.19;5046985;28;20047;-34
2023/02/20 02:58:17;;;;;;;15.75;7.97;;;;;;;11.49;54.83;100276.78;5048541;28;20064;-33
2023/02/20 03:00:51;;;;;;;16.05;8.20;;;;;;;11.52;54.75;100289.69;5048711;28;20508;-33
2023/02/20 03:03:29;;;;;;;15.00;8.48;;;;;;;11.41;55.57;100293.06;5048223;28;20017;-34
2023/02/20 03:06:27;;;;;;;15.23;8.00;;;;;;;11.46;55.20;100304.75;5048487;28;20487;-33
2023/02/20 03:09:14;;;;;;;13.45;8.35;;;;;;;11.53;54.85;100307.34;5048195;28;20037;-34
2023/02/20 03:11:44;;;;;;;15.15;8.20;;;;;;;11.43;54.84;100299.03;5048300;28;20029;-33
2023/02/20 03:17:19;;;;;;;14.05;9.10;;;;;;;11.24;55.97;100328.31;5048450;28;20044;-33
2023/02/20 03:19:51;;;;;;;13.60;7.65;;;;;;;11.21;55.56;100299.38;5046813;28;20718;-34
2023/02/20 03:22:38;;;;;;;13.77;7.90;;;;;;;11.32;55.39;100318.41;5048074;28;20094;-34
2023/02/20 03:25:20;;;;;;;13.18;8.07;;;;;;;11.17;56.31;100332.88;5047870;28;20028;-34
2023/02/20 03:27:48;;;;;;;13.45;8.38;;;;;;;11.00;56.94;100332.59;5048576;28;20048;-34
2023/02/20 03:30:16;;;;;;;;;;;;;;;10.92;57.32;100329.38;5048578;28;20628;-34
2023/02/20 03:43:52;;;;;;;16.10;8.20;;;;;;;10.82;58.26;100319.16;5047506;28;20036;-34
2023/02/20 03:46:21;;;;;;;14.88;8.18;;;;;;;10.65;58.09;100313.50;5046712;28;20083;-33
2023/02/20 03:48:50;;;;;;;13.93;8.18;;;;;;;10.85;58.29;100335.56;5047687;28;20024;-33
2023/02/20 03:51:16;;;;;;;14.10;7.25;;;;;;;10.71;58.77;100318.00;5047918;28;20087;-33
2023/02/20 03:53:43;;;;;;;13.48;7.60;;;;;;;10.83;58.65;100324.28;5047753;28;20024;-33
2023/02/20 03:56:13;;;;;;;11.48;6.85;;;;;;;10.75;58.71;100323.72;5047635;28;20066;-33
2023/02/20 03:58:43;;;;;;;9.50;6.13;;;;;;;10.70;58.56;100305.69;5048001;28;20045;-32
2023/02/20 04:01:14;;;;;;;13.90;7.50;;;;;;;10.71;58.98;100304.66;5047720;28;20021;-33
2023/02/20 04:03:45;;;;;;;13.75;7.97;;;;;;;10.83;58.54;100321.63;5047729;28;20029;-33
2023/02/20 04:06:12;;;;;;;13.77;7.30;;;;;;;10.82;58.81;100319.97;5047638;28;20025;-33
2023/02/20 04:08:45;;;;;;;12.60;7.50;;;;;;;10.76;58.98;100312.81;5047514;28;20036;-33
2023/02/20 04:11:20;;;;;;;11.15;7.38;;;;;;;10.89;58.21;100303.09;5047294;28;20083;-33
2023/02/20 04:13:47;;;;;;;13.20;7.70;;;;;;;11.11;57.81;100333.75;5047828;28;20033;-33
2023/02/20 04:16:13;;;;;;;13.75;7.97;;;;;;;11.14;57.78;100338.66;5047433;28;20591;-33
2023/02/20 04:18:38;;;;;;;14.30;7.82;;;;;;;11.21;57.88;100336.75;5046418;28;20037;-33
2023/02/20 04:21:16;;;;;;;12.90;7.85;;;;;;;11.21;57.43;100325.28;5047413;28;20017;-35
2023/02/20 04:23:46;;;;;;;12.93;7.25;;;;;;;11.11;57.58;100309.72;5047711;28;20033;-33
2023/02/20 04:26:17;;;;;;;12.80;7.57;;;;;;;11.18;57.56;100334.53;5047276;28;20060;-33
2023/02/20 04:28:43;;;;;;;11.52;7.22;;;;;;;11.22;57.43;100334.94;5047441;28;20473;-33
2023/02/20 04:31:12;;;;;;;14.70;7.88;;;;;;;11.24;57.67;100333.66;5047171;28;20568;-33
2023/02/20 04:33:37;;;;;;;12.75;7.72;;;;;;;11.22;57.86;100298.38;5047087;28;20461;-36
2023/02/20 04:36:03;;;;;;;11.60;6.88;;;;;;;11.19;57.44;100296.13;5047084;28;20116;-34
2023/02/20 04:38:28;;;;;;;14.65;8.52;;;;;;;11.24;57.64;100306.16;5047517;28;20040;-33
2023/02/20 04:40:54;;;;;;;13.25;8.15;;;;;;;11.09;57.73;100278.94;5047071;28;20047;-34
2023/02/20 04:43:20;;;;;;;13.55;7.93;;;;;;;11.18;57.84;100296.34;5047052;28;20029;-34
2023/02/20 04:45:45;;;;;;;13.13;7.57;;;;;;;11.12;58.19;100319.38;5047200;28;20108;-33
2023/02/20 04:48:11;;;;;;;12.88;7.68;;;;;;;11.25;57.82;100329.94;5050420;28;20781;-33
2023/02/20 04:50:36;;;;;;;16.17;8.93;;;;;;;10.89;58.44;100309.28;5051151;28;20033;-33
2023/02/20 04:53:02;;;;;;;15.18;9.18;;;;;;;11.04;59.07;100344.47;5050980;28;20057;-33
2023/02/20 04:55:28;;;;;;;13.98;7.93;;;;;;;10.98;59.33;100339.19;5050930;28;20421;-33
2023/02/20 04:57:55;;;;;;;20.35;8.95;;;;;;;11.00;59.03;100353.13;5049467;28;20025;-33
2023/02/20 05:00:22;;;;;;;13.45;8.68;;;;;;;11.04;59.12;100357.00;5050922;28;20037;-33
2023/02/20 05:02:47;;;;;;;14.25;8.25;;;;;;;11.00;58.82;100364.63;5050789;28;20043;-33
2023/02/20 05:05:19;;;;;;;15.13;8.82;;;;;;;10.92;59.47;100351.53;5050673;28;20033;-36
2023/02/20 05:07:44;;;;;;;16.23;9.07;;;;;;;10.92;59.70;100358.72;5050819;28;20021;-33
2023/02/20 05:10:15;;;;;;;21.00;10.32;;;;;;;10.97;59.48;100354.38;5050651;28;20043;-32
2023/02/20 05:12:41;;;;;;;16.52;9.18;;;;;;;10.89;58.83;100329.78;5050617;28;20025;-34
2023/02/20 05:15:06;;;;;;;13.40;8.32;;;;;;;11.01;58.59;100355.59;5050519;28;20055;-33
2023/02/20 05:17:32;;;;;;;11.50;7.25;;;;;;;10.85;59.20;100348.09;5050042;28;20036;-33
2023/02/20 05:19:57;;;;;;;10.60;7.22;;;;;;;10.89;59.19;100377.81;5050547;28;20472;-33
2023/02/20 05:22:23;;;;;;;10.50;6.80;;;;;;;10.75;59.25;100383.22;5050788;28;20032;-32
2023/02/20 05:24:53;;;;;;;11.88;6.40;;;;;;;10.74;58.59;100376.25;5050387;28;20037;-33
2023/02/20 05:27:20;;;;;;;11.68;6.05;;;;;;;10.82;58.30;100384.00;5050233;28;20382;-33
2023/02/20 05:29:52;;;;;;;12.43;5.82;;;;;;;10.71;58.66;100371.34;5050346;28;20032;-33
2023/02/20 05:32:19;;;;;;;9.60;4.65;;;;;;;10.76;57.89;100395.53;5050071;28;20643;-33
2023/02/20 05:34:47;;;;;;;9.27;4.82;;;;;;;10.72;57.73;100394.31;5050068;28;20524;-33
2023/02/20 05:37:14;;;;;;;6.38;3.72;;;;;;;10.79;57.50;100395.09;5050084;28;20040;-35
2023/02/20 05:39:40;;;;;;;7.28;3.88;;;;;;;10.83;57.30;100396.31;5049928;28;20033;-33
2023/02/20 05:42:06;;;;;;;7.00;3.13;;;;;;;10.93;56.76;100421.72;5049984;28;20406;-33
2023/02/20 05:44:32;;;;;;;8.48;3.65;;;;;;;11.01;56.03;100419.66;5049846;28;20114;-33
2023/02/20 05:46:58;;;;;;;5.97;2.90;;;;;;;10.93;56.50;100424.38;5049556;28;20060;-33
2023/02/20 05:49:24;;;;;;;5.97;2.75;;;;;;;10.89;56.41;100415.16;5049636;28;20037;-33
2023/02/20 05:51:50;;;;;;;6.93;3.17;;;;;;;11.01;56.15;100429.47;5049753;28;20041;-32
2023/02/20 05:54:19;;;;;;;7.25;2.33;;;;;;;11.00;56.43;100434.00;5049970;28;20035;-34
2023/02/20 05:56:46;;;;;;;4.85;2.10;;;;;;;11.03;55.81;100422.91;5049677;28;20024;-33
2023/02/20 05:59:12;;;;;;;4.68;2.20;;;;;;;10.92;55.98;100420.09;5048997;28;20033;-33
2023/02/20 06:01:38;;;;;;;5.30;2.13;;;;;;;11.03;55.92;100435.41;5049389;28;20072;-33
2023/02/20 06:04:04;;;;;;;6.18;2.30;;;;;;;11.02;56.01;100415.94;5049470;28;20141;-33
2023/02/20 06:06:37;;;;;;;4.60;2.25;;;;;;;11.23;55.57;100451.34;5049613;28;20017;-34
2023/02/20 06:09:06;;;;;;;3.05;2.00;;;;;;;11.28;55.87;100451.53;5049516;28;20479;-33
2023/02/20 06:11:33;;;;;;;5.55;2.10;;;;;;;11.12;55.90;100446.69;5049296;28;20086;-33
2023/02/20 06:13:58;;;;;;;5.38;2.22;;;;;;;11.15;56.01;100420.38;5049125;28;20138;-32
2023/02/20 06:16:28;;;;;;;6.40;2.45;;;;;;;11.37;55.58;100442.22;5049310;28;20029;-33
2023/02/20 06:18:55;;;;;;;5.88;2.25;;;;;;;11.45;55.47;100441.97;5047957;28;20033;-33
2023/02/20 06:21:22;;;;;;;4.57;2.15;;;;;;;11.65;54.47;100433.81;5049155;28;20099;-32
2023/02/20 06:23:49;;;;;;;6.40;2.33;;;;;;;11.66;54.59;100443.47;5049163;28;20108;-34
2023/02/20 06:26:17;;;;;;;5.65;2.33;;;;;;;11.79;54.47;100473.78;5049079;28;20025;-32
2023/02/20 06:28:48;;;;;;;3.95;2.03;;;;;;;11.69;54.12;100468.94;5049179;28;20033;-33
2023/02/20 06:31:21;;;;;;;4.70;2.08;;;;;;;11.66;54.25;100480.88;5048924;28;20560;-33
2023/02/20 06:33:46;;;;;;;3.05;1.80;;;;;;;11.84;53.88;100473.97;5049080;28;20025;-32
2023/02/20 06:36:29;;;;;;;5.97;1.90;;;;;;;12.06;53.25;100485.16;5048988;28;20083;-32
2023/02/20 06:38:55;;;;;;;4.95;1.98;;;;;;;11.72;52.85;100483.72;5048759;28;20064;-33
2023/02/20 06:41:20;;;;;;;1.77;1.27;;;;;;;12.01;52.51;100488.47;5048464;28;20060;-33
2023/02/20 06:43:46;;;;;;;4.43;1.90;;;;;;;12.22;52.74;100489.13;5048865;28;20408;-34
2023/02/20 06:46:11;;;;;;;3.50;1.63;;;;;;;12.02;52.50;100481.28;5048824;28;20033;-36
2023/02/20 06:48:53;;;;;;;4.10;1.85;;;;;;;12.13;52.30;100461.03;5048770;28;20091;-33
2023/02/20 06:51:20;;;;;;;4.95;2.25;;;;;;;12.12;51.74;100468.22;5047062;28;20025;-34
2023/02/20 06:53:46;;;;;;;7.68;3.17;;;;;;;12.22;52.10;100462.41;5048695;28;20104;-33
2023/02/20 06:56:18;;;;;;;9.80;4.03;;;;;;;12.39;51.82;100468.78;5048753;28;20108;-36
2023/02/20 06:58:48;;;;;;;6.28;2.55;;;;;;;12.60;49.80;100464.06;5048655;28;20102;-33
2023/02/20 07:01:15;;;;;;;5.15;2.15;;;;;;;12.48;50.13;100482.69;5048290;28;20040;-33
2023/02/20 07:03:40;;;;;;;4.50;1.73;;;;;;;12.71;49.61;100475.88;5048560;28;20105;-34
2023/02/20 07:06:06;;;;;;;2.85;1.40;;;;;;;12.70;49.00;100485.75;5046698;28;20116;-33
2023/02/20 07:08:31;;;;;;;3.70;1.60;;;;;;;12.58;49.06;100463.47;5048139;28;20031;-33
2023/02/20 07:10:57;;;;;;;4.53;1.80;;;;;;;12.62;48.23;100460.13;5047513;28;20025;-33
2023/02/20 07:13:22;;;;;;;3.80;1.75;;;;;;;12.91;48.15;100475.66;5048267;28;20025;-34
2023/02/20 07:15:48;;;;;;;8.85;2.25;;;;;;;12.80;48.03;100464.66;5048147;28;20031;-34
2023/02/20 07:18:16;;;;;;;4.22;2.00;;;;;;;12.93;47.91;100452.16;5048436;28;20033;-34
2023/02/20 07:20:42;;;;;;;2.97;1.40;;;;;;;13.00;47.22;100468.97;5048262;28;20024;-34
2023/02/20 07:23:07;;;;;;;3.65;1.15;;;;;;;13.14;46.61;100480.34;5048121;28;20031;-34
2023/02/20 07:25:32;;;;;;;2.95;1.60;;;;;;;12.94;47.24;100459.97;5047882;28;20560;-33
2023/02/20 07:27:58;;;;;;;2.10;1.23;;;;;;;13.02;47.06;100490.97;5047893;28;20033;-34
2023/02/20 07:30:24;;;;;;;7.03;2.05;;;;;;;13.03;46.88;100476.53;5047852;28;20123;-33
2023/02/20 07:32:50;;;;;;;7.45;1.70;;;;;;;13.22;46.58;100478.16;5047786;28;20025;-33
2023/02/20 07:35:15;;;;;;;3.70;1.70;;;;;;;13.25;46.33;100480.38;5047576;28;20778;-34
2023/02/20 07:37:41;;;;;;;2.60;1.27;;;;;;;13.26;46.88;100492.72;5048032;28;20040;-33
2023/02/20 07:40:07;;;;;;;4.68;2.10;;;;;;;13.47;46.39;100474.56;5047654;28;20053;-33
2023/02/20 07:42:32;;;;;;;4.20;1.73;;;;;;;13.51;45.36;100505.22;5047925;28;20039;-33
2023/02/20 07:44:58;;;;;;;7.03;2.25;;;;;;;13.56;45.97;100513.38;5047845;28;20025;-34
2023/02/20 07:47:23;;;;;;;6.88;2.45;;;;;;;13.59;45.83;100496.84;5047354;28;20040;-34
2023/02/20 07:49:49;;;;;;;6.95;2.65;;;;;;;13.66;45.47;100510.16;5047633;28;20028;-33
2023/02/20 07:52:14;;;;;;;6.50;2.80;;;;;;;13.95;45.56;100499.59;5047774;28;20459;-34
2023/02/20 07:54:42;;;;;;;3.20;1.63;;;;;;;14.00;44.36;100489.84;5047672;28;20175;-33
2023/02/20 07:57:08;;;;;;;5.90;2.65;;;;;;;13.86;44.79;100493.78;5047734;28;20104;-35
2023/02/20 07:59:33;;;;;;;8.55;2.20;;;;;;;13.90;44.80;100481.53;5047293;28;20120;-33
2023/02/20 08:01:59;;;;;;;4.65;1.55;;;;;;;14.00;43.91;100489.03;5047536;28;20092;-34
2023/02/20 08:04:24;;;;;;;3.28;1.50;;;;;;;14.01;43.60;100496.81;5046039;28;20458;-34
2023/02/20 08:06:50;;;;;;;4.97;1.90;;;;;;;14.04;43.54;100508.97;5047644;28;20518;-34
2023/02/20 08:09:15;;;;;;;8.02;2.40;;;;;;;14.16;42.92;100517.00;5047576;28;20036;-34
2023/02/20 08:11:40;;;;;;;4.40;2.28;;;;;;;14.28;42.93;100512.47;5047764;28;20473;-34
2023/02/20 08:14:06;;;;;;;3.72;2.25;;;;;;;14.50;42.44;100512.72;5047581;28;20029;-34
2023/02/20 08:16:32;;;;;;;9.75;2.65;;;;;;;14.17;41.55;100499.88;5047247;28;20037;-33
2023/02/20 08:18:58;;;;;;;3.38;2.03;;;;;;;14.49;41.01;100496.88;5047297;28;20595;-34
2023/02/20 08:21:24;;;;;;;7.55;2.30;;;;;;;14.56;40.85;100486.84;5047786;28;20473;-34
2023/02/20 08:23:51;;;;;;;7.55;3.05;;;;;;;14.82;39.58;100507.81;5051722;28;20032;-33
2023/02/20 08:26:17;;;;;;;5.30;1.80;;;;;;;14.65;40.02;100520.34;5050359;28;20052;-40
2023/02/20 08:28:42;;;;;;;3.22;1.75;;;;;;;14.76;39.70;100495.34;5040429;28;20056;-40
2023/02/20 08:31:08;;;;;;;3.58;2.10;;;;;;;14.96;39.37;100505.69;5039886;28;20029;-37
2023/02/20 08:33:35;;;;;;;3.78;2.25;;;;;;;14.89;39.52;100506.88;5040132;28;20509;-38
2023/02/20 08:36:01;;;;;;;4.28;1.88;;;;;;;14.82;38.73;100486.34;5040663;28;20086;-40
2023/02/20 08:38:35;;;;;;;4.43;1.75;;;;;;;14.92;38.48;100495.69;5040321;28;20030;-41
2023/02/20 08:41:10;;;;;;;5.43;1.90;;;;;;;14.95;38.30;100495.19;5039764;28;20563;-38
2023/02/20 08:43:37;;;;;;;6.22;1.65;;;;;;;15.20;37.79;100500.25;5039256;28;20064;-41
2023/02/20 08:46:04;;;;;;;7.25;1.83;;;;;;;14.94;37.26;100456.78;5041174;28;20033;-38
2023/02/20 08:48:30;;;;;;;7.50;2.38;;;;;;;15.39;37.17;100495.53;5031113;28;20091;-40
2023/02/20 08:50:55;;;;;;;5.00;2.08;;;;;;;15.33;37.33;100472.31;5037974;28;20112;-40
2023/02/20 08:53:21;;;;;;;3.75;1.95;;;;;;;15.25;37.61;100478.88;5039670;28;20059;-41
2023/02/20 08:55:47;;;;;;;4.57;2.00;;;;;;;15.65;36.00;100472.59;5036081;28;20061;-41
2023/02/20 08:58:12;;;;;;;5.93;1.60;;;;;;;15.76;35.78;100520.16;5030895;28;20029;-40
2023/02/20 09:00:38;;;;;;;3.30;1.55;;;;;;;15.64;35.00;100482.53;5030506;28;20041;-39
2023/02/20 09:03:07;;;;;;;5.68;1.40;;;;;;;15.78;33.63;100509.16;5031201;28;20060;-42
2023/02/20 09:05:33;;;;;;;3.45;1.60;;;;;;;15.69;34.63;100500.63;5030598;28;20037;-40
2023/02/20 09:07:59;;;;;;;4.70;1.70;;;;;;;15.77;33.80;100496.75;5030734;28;20035;-42
2023/02/20 09:10:25;;;;;;;2.67;1.30;;;;;;;15.61;32.17;100480.34;5030669;28;20033;-41
2023/02/20 09:12:50;;;;;;;3.22;1.45;;;;;;;15.78;31.90;100498.41;5030897;28;20108;-41
2023/02/20 09:15:18;;;;;;;3.05;1.48;;;;;;;16.06;32.05;100506.41;5030581;28;20068;-40
2023/02/20 09:17:47;;;;;;;3.17;1.50;;;;;;;16.02;31.69;100497.19;5030789;28;20087;-41
2023/02/20 09:20:14;;;;;;;3.83;1.88;;;;;;;15.98;32.61;100501.44;5030803;28;20116;-41
2023/02/20 09:22:40;;;;;;;4.20;1.65;;;;;;;16.39;31.70;100517.41;5030744;28;20122;-42
2023/02/20 09:25:06;;;;;;;4.93;1.55;;;;;;;16.45;31.11;100521.81;5030273;28;20184;-42
2023/02/20 09:27:34;;;;;;;4.80;1.60;;;;;;;16.06;31.45;100501.03;5043378;28;20043;-41
2023/02/20 09:29:59;;;;;;;3.97;1.48;;;;;;;16.22;31.37;100520.94;5050393;28;20043;-37
2023/02/20 09:32:25;;;;;;;3.25;1.65;;;;;;;16.02;30.63;100518.72;5049430;28;20033;-40
2023/02/20 09:34:50;;;;;;;4.40;1.45;;;;;;;16.17;29.49;100528.91;5049421;28;20032;-41
2023/02/20 09:37:16;;;;;;;5.25;1.52;;;;;;;16.32;29.18;100509.47;5049711;28;20029;-39
2023/02/20 09:39:41;;;;;;;3.05;1.30;;;;;;;16.43;27.18;100527.44;5049783;28;20051;-40
2023/02/20 09:42:21;;;;;;;4.78;1.30;;;;;;;16.73;27.43;100531.59;5049589;28;20504;-40
2023/02/20 09:45:08;;;;;;;4.38;1.80;;;;;;;16.66;27.53;100547.16;5050132;28;20128;-41
2023/02/20 09:47:54;;;;;;;3.67;1.60;;;;;;;17.11;28.24;100511.13;5049502;28;20123;-42
2023/02/20 09:50:43;;;;;;;2.78;1.10;;;;;;;17.17;26.06;100537.06;5049714;28;20029;-40
2023/02/20 09:53:21;;;;;;;2.97;1.58;;;;;;;17.19;27.05;100521.47;5049678;28;20064;-38
2023/02/20 09:55:50;;;;;;;3.03;1.10;;;;;;;17.20;26.59;100504.25;5049463;28;20028;-35
2023/02/20 09:58:40;;;;;;;1.27;0.93;;;;;;;17.36;25.55;100523.28;5049553;28;20033;-40
2023/02/20 10:01:06;;;;;;;2.95;1.15;;;;;;;17.17;24.56;100510.13;5049160;28;20021;-40
2023/02/20 10:03:53;;;;;;;2.53;1.33;;;;;;;17.53;25.45;100524.00;5049469;28;20039;-39
2023/02/20 10:06:21;;;;;;;3.17;1.10;;;;;;;17.54;24.38;100505.94;5049403;28;20031;-41
2023/02/20 10:08:48;;;;;;;2.25;1.08;;;;;;;17.38;23.78;100531.91;5049316;28;20033;-40
2023/02/20 10:11:30;;;;;;;2.70;1.23;;;;;;;17.78;23.27;100533.44;5048920;28;20036;-39
2023/02/20 10:14:07;;;;;;;1.65;1.05;;;;;;;17.77;23.30;100539.88;5048040;28;20032;-40
2023/02/20 10:16:41;;;;;;;2.65;1.20;;;;;;;17.91;23.02;100535.72;5049215;28;20033;-37
2023/02/20 10:19:21;;;;;;;4.03;1.20;;;;;;;17.67;23.32;100535.19;5049064;28;20033;-42
2023/02/20 10:22:02;;;;;;;2.47;1.30;;;;;;;17.61;23.15;100549.69;5049141;28;20048;-41
2023/02/20 10:24:52;;;;;;;1.92;1.00;;;;;;;17.46;23.25;100544.94;5049097;28;20033;-39
2023/02/20 10:27:24;;;;;;;2.65;1.70;;;;;;;17.48;23.56;100549.00;5048999;28;20041;-36
2023/02/20 10:29:51;;;;;;;5.13;1.40;;;;;;;18.20;23.11;100538.13;5048977;28;20021;-39
2023/02/20 10:32:31;;;;;;;1.85;1.10;;;;;;;18.39;23.24;100523.16;5048829;28;20043;-41
2023/02/20 10:35:00;;;;;;;3.72;1.15;;;;;;;18.61;22.74;100527.59;5048946;28;20496;-38
2023/02/20 10:37:44;;;;;;;1.83;1.02;;;;;;;18.68;22.40;100530.91;5048659;28;20033;-40
2023/02/20 10:40:23;;;;;;;1.83;1.20;;;;;;;18.67;22.29;100534.66;5048836;28;20048;-39
2023/02/20 10:43:27;;;;;;;6.93;2.00;;;;;;;18.38;22.62;100532.31;5048426;28;20033;-41
2023/02/20 10:46:22;;;;;;;2.83;1.50;;;;;;;18.59;22.42;100529.75;5048483;28;20032;-39
2023/02/20 10:48:47;;;;;;;1.70;1.15;;;;;;;18.60;22.62;100526.00;5048026;28;20034;-39
2023/02/20 10:51:23;;;;;;;1.67;1.17;;;;;;;19.13;22.07;100528.72;5048137;28;20045;-38
2023/02/20 10:53:57;;;;;;;2.55;1.40;;;;;;;18.88;21.75;100535.63;5048648;28;20033;-41
2023/02/20 10:56:49;;;;;;;1.80;1.00;;;;;;;18.38;22.31;100532.31;5048522;28;20174;-41
2023/02/20 10:59:25;;;;;;;4.82;1.48;;;;;;;18.57;22.15;100526.50;5047828;28;20044;-39
2023/02/20 11:01:56;;;;;;;3.58;1.42;;;;;;;18.92;21.75;100519.69;5037793;28;20041;-42
2023/02/20 11:04:29;;;;;;;1.65;1.10;;;;;;;18.77;21.98;100515.81;5037070;28;20026;-41
2023/02/20 11:06:59;;;;;;;7.57;1.45;;;;;;;19.57;22.05;100517.47;5036726;28;20036;-39
2023/02/20 11:09:24;;;;;;;3.15;1.50;;;;;;;19.96;21.66;100520.53;5036532;28;20031;-39
2023/02/20 11:11:52;;;;;;;3.03;1.48;;;;;;;20.41;21.22;100527.03;5036947;28;20025;-39
2023/02/20 11:14:22;;;;;;;1.98;1.33;;;;;;;19.65;20.73;100530.47;5038282;28;20046;-40
2023/02/20 11:16:54;;;;;;;4.32;2.00;;;;;;;19.42;20.61;100534.50;5037215;28;20084;-39
2023/02/20 11:19:29;;;;;;;3.60;1.70;;;;;;;19.19;21.51;100524.97;5030220;28;20032;-37
2023/02/20 11:21:55;;;;;;;4.95;1.75;;;;;;;19.64;21.75;100531.56;5027669;28;20040;-38
2023/02/20 11:24:26;;;;;;;3.97;2.00;;;;;;;19.08;21.09;100526.78;5026235;28;20041;-41
2023/02/20 11:26:58;;;;;;;6.75;1.73;;;;;;;18.52;21.85;100510.28;5027932;28;20042;-37
2023/02/20 11:29:32;;;;;;;5.00;1.73;;;;;;;18.84;21.55;100521.03;5027298;28;20040;-40
2023/02/20 11:32:36;;;;;;;3.58;1.63;;;;;;;18.67;22.02;100492.28;5027424;28;20098;-38
2023/02/20 11:35:16;;;;;;;4.10;1.52;;;;;;;19.32;22.61;100504.72;5029202;28;20125;-36
2023/02/20 11:37:47;;;;;;;3.42;1.30;;;;;;;19.64;22.48;100510.72;5027467;28;20045;-40
2023/02/20 11:40:14;;;;;;;2.38;1.33;;;;;;;19.89;20.71;100502.94;5032705;28;20048;-42
2023/02/20 11:42:40;;;;;;;3.33;1.40;;;;;;;19.76;21.01;100509.72;5035339;28;20039;-40
2023/02/20 11:45:24;;;;;;;4.38;1.70;;;;;;;19.52;20.88;100515.59;5037481;28;20017;-38
2023/02/20 11:48:11;;;;;;;5.00;1.90;;;;;;;19.53;20.79;100511.78;5036047;28;20481;-38